Time;durP1;ratioP1;P1;durP2;ratioP2;P2;SDS_P1;SDS_P2;PMS_P1;PMS_P2;Temp;Humidity;BMP_temperature;BMP_pressure;BME280_temperature;BME280_humidity;BME280_pressure;Samples;Min_cycle;Max_cycle;Signal;HPM_P1;HPM_P2
2022/10/03 00:02:12;;;;;;;15.55;7.70;;;;;;;7.90;100.00;102388.63;6089461;23;20003;-83
2022/10/03 00:05:07;;;;;;;18.90;7.80;;;;;;;7.89;100.00;102393.91;6089876;23;20017;-83
2022/10/03 00:07:51;;;;;;;14.35;7.68;;;;;;;7.84;100.00;102391.34;6089764;23;20029;-83
2022/10/03 00:10:19;;;;;;;16.90;7.68;;;;;;;7.84;100.00;102393.13;6088350;23;20003;-83
2022/10/03 00:12:59;;;;;;;13.63;7.03;;;;;;;7.81;100.00;102396.69;6090545;23;20006;-83
2022/10/03 00:15:31;;;;;;;14.85;7.20;;;;;;;7.73;100.00;102380.91;6089924;23;20045;-84
2022/10/03 00:18:04;;;;;;;16.73;7.50;;;;;;;7.74;100.00;102387.94;6089744;23;20344;-83
2022/10/03 00:20:44;;;;;;;14.80;7.23;;;;;;;7.74;100.00;102387.09;6088862;23;20037;-83
2022/10/03 00:23:35;;;;;;;13.57;6.97;;;;;;;7.70;100.00;102391.53;6091620;23;20212;-83
2022/10/03 00:26:27;;;;;;;13.35;7.03;;;;;;;7.63;100.00;102391.66;6091329;23;20002;-83
2022/10/03 00:29:20;;;;;;;14.75;7.43;;;;;;;7.61;100.00;102396.09;6071430;23;20041;-83
2022/10/03 00:32:16;;;;;;;14.93;7.50;;;;;;;7.60;100.00;102397.84;6065943;23;20010;-83
2022/10/03 00:34:44;;;;;;;13.70;6.93;;;;;;;7.57;100.00;102408.53;6092003;23;20328;-83
2022/10/03 00:37:34;;;;;;;18.40;7.95;;;;;;;7.53;100.00;102414.75;6091348;23;20073;-84
2022/10/03 00:40:30;;;;;;;13.57;7.15;;;;;;;7.52;100.00;102407.69;6090636;23;20064;-84
2022/10/03 00:43:32;;;;;;;12.70;7.07;;;;;;;7.47;100.00;102413.03;6091678;23;20002;-84
2022/10/03 00:46:46;;;;;;;13.70;7.70;;;;;;;7.49;100.00;102415.69;6091066;23;20042;-83
2022/10/03 00:49:29;;;;;;;17.60;7.63;;;;;;;7.48;100.00;102413.91;5945844;24;20013;-84
2022/10/03 00:52:38;;;;;;;17.33;8.35;;;;;;;7.46;100.00;102418.38;5946441;24;20087;-84
2022/10/03 00:55:09;;;;;;;17.02;8.07;;;;;;;7.41;100.00;102421.09;5946530;24;20036;-84
2022/10/03 00:57:59;;;;;;;17.70;9.50;;;;;;;7.44;100.00;102422.78;5946886;24;20283;-84
2022/10/03 01:00:28;;;;;;;19.45;8.60;;;;;;;7.41;100.00;102417.56;5922508;24;20024;-84
2022/10/03 01:03:01;;;;;;;17.25;8.02;;;;;;;7.34;100.00;102424.69;5946793;24;20630;-84
2022/10/03 01:05:51;;;;;;;18.65;8.57;;;;;;;7.32;100.00;102426.50;5946647;24;20061;-84
2022/10/03 01:08:19;;;;;;;15.88;9.00;;;;;;;7.34;100.00;102427.34;5922465;24;20020;-84
2022/10/03 01:10:57;;;;;;;18.58;8.90;;;;;;;7.26;100.00;102421.25;5945454;24;20016;-84
2022/10/03 01:13:42;;;;;;;15.88;9.50;;;;;;;7.29;100.00;102423.88;5946167;24;20009;-84
2022/10/03 01:16:36;;;;;;;18.17;9.93;;;;;;;7.30;100.00;102438.88;5946592;24;20012;-84
2022/10/03 01:19:20;;;;;;;;;;;;;;;7.30;100.00;102445.94;5945859;24;20083;-84
2022/10/03 01:22:23;;;;;;;18.17;9.93;;;;;;;7.23;100.00;102451.31;5946919;24;19915;-84
2022/10/03 01:24:58;;;;;;;18.35;9.32;;;;;;;7.25;100.00;102451.28;5987448;23;20006;-84
2022/10/03 01:30:21;;;;;;;15.85;8.93;;;;;;;7.21;100.00;102446.94;6091365;23;20357;-84
2022/10/03 01:30:47;;;;;;;15.85;9.25;;;;;;;7.18;100.00;102452.25;6089957;23;20011;-84
2022/10/03 01:33:29;;;;;;;22.02;9.95;;;;;;;7.14;100.00;102448.75;6064674;23;20018;-84
2022/10/03 01:36:11;;;;;;;18.33;10.30;;;;;;;7.18;100.00;102447.81;6091232;23;20020;-83
2022/10/03 01:38:42;;;;;;;18.63;10.55;;;;;;;7.20;100.00;102450.47;6092207;23;20404;-83
2022/10/03 01:41:22;;;;;;;18.23;10.23;;;;;;;7.17;100.00;102450.50;6092072;23;19998;-83
2022/10/03 01:43:59;;;;;;;21.63;10.40;;;;;;;7.11;100.00;102437.34;6093174;23;20002;-83
2022/10/03 01:46:52;;;;;;;16.35;10.35;;;;;;;7.13;100.00;102444.34;6095420;23;20021;-83
2022/10/03 01:49:42;;;;;;;21.73;11.02;;;;;;;7.18;100.00;102447.81;6093112;23;20444;-84
2022/10/03 01:52:26;;;;;;;21.63;11.63;;;;;;;7.20;100.00;102454.00;6094656;23;20006;-83
2022/10/03 01:55:04;;;;;;;21.75;11.93;;;;;;;7.19;100.00;102454.91;6096467;23;20091;-83
2022/10/03 01:57:37;;;;;;;26.67;12.65;;;;;;;7.20;100.00;102450.47;6092401;23;20435;-83
2022/10/03 02:00:22;;;;;;;28.17;12.52;;;;;;;7.21;100.00;102452.22;6091339;23;20002;-83
2022/10/03 02:03:09;;;;;;;23.40;12.35;;;;;;;7.20;100.00;102456.66;6093529;23;20069;-83
2022/10/03 02:05:54;;;;;;;24.35;12.30;;;;;;;7.24;100.00;102457.50;6067118;23;20503;-84
2022/10/03 02:08:41;;;;;;;27.35;12.02;;;;;;;7.24;100.00;102454.84;6091179;23;20014;-84
2022/10/03 02:11:09;;;;;;;22.60;11.77;;;;;;;7.26;100.00;102460.13;6092288;23;20002;-84
2022/10/03 02:13:44;;;;;;;24.52;11.63;;;;;;;7.25;100.00;102459.25;6092072;23;20368;-84
2022/10/03 02:16:47;;;;;;;22.05;11.70;;;;;;;7.24;100.00;102466.31;6093395;23;20085;-83
2022/10/03 02:19:23;;;;;;;21.80;12.48;;;;;;;7.26;100.00;102468.94;6093323;23;20007;-84
2022/10/03 02:21:54;;;;;;;18.50;11.80;;;;;;;7.21;100.00;102465.47;6093256;23;20064;-84
2022/10/03 02:24:38;;;;;;;22.70;12.75;;;;;;;7.17;100.00;102459.31;6064564;23;20010;-84
2022/10/03 02:27:21;;;;;;;21.08;11.07;;;;;;;7.14;100.00;102466.41;6091026;23;20126;-84
2022/10/03 02:30:07;;;;;;;21.23;11.73;;;;;;;7.11;100.00;102461.19;6063969;23;20042;-84
2022/10/03 02:33:20;;;;;;;20.52;10.88;;;;;;;7.06;100.00;102455.03;6065789;23;20003;-84
2022/10/03 02:36:03;;;;;;;22.55;12.00;;;;;;;7.06;100.00;102460.31;6083373;23;20010;-84
2022/10/03 02:38:51;;;;;;;24.05;11.93;;;;;;;7.06;100.00;102449.72;6090068;23;20077;-84
2022/10/03 02:41:31;;;;;;;18.98;11.15;;;;;;;7.06;100.00;102457.66;6093466;23;20065;-85
2022/10/03 02:44:40;;;;;;;22.15;11.48;;;;;;;6.95;100.00;102452.50;6090530;23;20020;-84
2022/10/03 02:47:27;;;;;;;21.40;11.18;;;;;;;6.98;100.00;102463.94;6091545;23;20488;-84
2022/10/03 02:49:58;;;;;;;22.30;11.73;;;;;;;6.95;100.00;102458.69;6087790;23;20089;-84
2022/10/03 02:52:44;;;;;;;22.33;12.57;;;;;;;6.94;100.00;102456.06;6091083;23;20104;-84
2022/10/03 02:55:12;;;;;;;23.05;12.40;;;;;;;6.96;100.00;102451.59;6089790;23;20006;-85
2022/10/03 02:57:59;;;;;;;22.60;11.80;;;;;;;6.93;100.00;102463.09;6064896;23;20401;-84
2022/10/03 03:00:58;;;;;;;20.00;11.70;;;;;;;6.92;100.00;102456.06;6089821;23;20010;-84
2022/10/03 03:03:45;;;;;;;22.33;11.85;;;;;;;6.84;100.00;102455.25;6088623;23;20036;-84
2022/10/03 03:06:32;;;;;;;20.27;11.40;;;;;;;6.86;100.00;102458.78;6063937;23;20499;-84
2022/10/03 03:09:16;;;;;;;26.42;11.52;;;;;;;6.78;100.00;102457.97;6062581;23;20041;-84
2022/10/03 03:12:19;;;;;;;18.38;11.25;;;;;;;6.80;100.00;102457.94;6089936;23;20035;-84
2022/10/03 03:15:28;;;;;;;22.85;12.63;;;;;;;6.81;100.00;102457.91;6090207;23;20010;-84
2022/10/03 03:18:02;;;;;;;24.25;12.15;;;;;;;6.82;100.00;102458.81;6089804;23;20518;-84
2022/10/03 03:20:46;;;;;;;20.98;12.20;;;;;;;6.73;100.00;102452.72;6089486;23;20006;-84
2022/10/03 03:24:02;;;;;;;24.63;12.70;;;;;;;6.78;100.00;102465.91;6089912;23;20017;-84
2022/10/03 03:26:53;;;;;;;22.83;11.82;;;;;;;6.76;100.00;102472.97;5973303;24;20019;-84
2022/10/03 03:29:30;;;;;;;19.58;11.88;;;;;;;6.71;100.00;102464.19;5971973;24;20012;-84
2022/10/03 03:32:03;;;;;;;24.17;12.43;;;;;;;6.64;100.00;102466.00;5973339;24;20019;-84
2022/10/03 03:34:50;;;;;;;19.50;11.68;;;;;;;6.66;100.00;102466.00;5972643;24;20072;-84
2022/10/03 03:37:29;;;;;;;22.52;11.05;;;;;;;6.64;100.00;102460.72;5972984;24;20012;-84
2022/10/03 03:40:01;;;;;;;19.85;10.88;;;;;;;6.56;100.00;102469.59;5972051;24;20023;-84
2022/10/03 03:42:41;;;;;;;20.73;11.45;;;;;;;6.54;100.00;102469.63;5949770;24;20012;-84
2022/10/03 03:45:19;;;;;;;20.98;11.25;;;;;;;6.47;100.00;102463.50;5972847;24;20103;-84
2022/10/03 03:48:17;;;;;;;19.73;10.98;;;;;;;6.49;100.00;102474.09;5971974;24;20020;-84
2022/10/03 03:51:04;;;;;;;18.48;11.23;;;;;;;6.48;100.00;102470.56;5973424;24;20076;-84
2022/10/03 03:53:48;;;;;;;21.02;11.10;;;;;;;6.46;100.00;102476.75;5972434;24;20022;-84
2022/10/03 03:56:32;;;;;;;;;;;;;;;6.43;100.00;102467.06;5973362;24;20076;-84
2022/10/03 03:59:06;;;;;;;20.37;11.30;;;;;;;6.46;100.00;102472.34;5974519;24;19910;-84
2022/10/03 04:01:57;;;;;;;23.35;11.57;;;;;;;6.45;100.00;102478.53;6083887;23;20049;-84
2022/10/03 04:04:36;;;;;;;19.20;11.27;;;;;;;6.41;100.00;102471.50;6092297;23;20010;-84
2022/10/03 04:07:05;;;;;;;18.45;11.48;;;;;;;6.47;100.00;102475.84;6091859;23;20013;-84
2022/10/03 04:09:58;;;;;;;23.40;13.48;;;;;;;6.46;100.00;102480.25;6065856;23;20010;-84
2022/10/03 04:12:45;;;;;;;22.55;11.52;;;;;;;6.43;100.00;102482.94;6092026;23;20006;-84
2022/10/03 04:15:39;;;;;;;21.58;11.70;;;;;;;6.43;100.00;102488.22;6089511;23;20436;-84
2022/10/03 04:21:22;;;;;;;21.33;11.75;;;;;;;6.43;100.00;102488.22;6092032;23;20022;-84
2022/10/03 04:24:12;;;;;;;26.48;11.60;;;;;;;6.46;100.00;102489.97;6093110;23;20070;-84
2022/10/03 04:27:07;;;;;;;20.38;11.98;;;;;;;6.43;100.00;102490.88;6093023;23;20006;-84
2022/10/03 04:29:45;;;;;;;20.35;11.07;;;;;;;6.46;100.00;102493.50;6092199;23;20006;-84
2022/10/03 04:32:14;;;;;;;19.52;10.43;;;;;;;6.41;100.00;102486.50;6092020;23;20011;-84
2022/10/03 04:35:36;;;;;;;18.38;10.90;;;;;;;6.38;100.00;102492.66;6092877;23;20038;-84
2022/10/03 04:38:38;;;;;;;17.30;11.65;;;;;;;6.34;100.00;102493.56;6003925;23;20015;-84
2022/10/03 04:41:30;;;;;;;18.98;10.27;;;;;;;6.32;100.00;102484.78;6003368;23;20018;-84
2022/10/03 04:44:14;;;;;;;24.38;12.75;;;;;;;6.40;100.00;102493.56;6003978;23;20322;-84
2022/10/03 04:46:53;;;;;;;25.58;11.48;;;;;;;6.47;100.00;102481.13;6003419;23;20018;-84
2022/10/03 04:49:29;;;;;;;26.23;13.18;;;;;;;6.55;100.00;102487.25;6005433;23;20036;-84
2022/10/03 04:52:04;;;;;;;19.83;11.73;;;;;;;6.60;100.00;102473.97;6006328;23;20032;-83
2022/10/03 04:54:32;;;;;;;23.15;12.07;;;;;;;6.56;100.00;102477.53;6006038;23;20087;-84
2022/10/03 04:57:08;;;;;;;23.00;11.63;;;;;;;6.54;100.00;102480.22;6004068;23;20094;-84
2022/10/03 04:59:36;;;;;;;21.88;11.48;;;;;;;6.55;100.00;102481.09;6004130;23;20011;-84
2022/10/03 05:02:29;;;;;;;17.77;11.23;;;;;;;6.54;100.00;102485.50;6003209;23;20083;-84
2022/10/03 05:05:31;;;;;;;24.25;12.30;;;;;;;6.53;100.00;102490.81;6003082;23;20015;-84
2022/10/03 05:08:22;;;;;;;22.58;12.68;;;;;;;6.53;100.00;102488.16;6025087;23;20049;-81
2022/10/03 05:11:07;;;;;;;25.10;13.15;;;;;;;6.32;100.00;102457.47;6066038;23;20341;-84
2022/10/03 05:13:49;;;;;;;18.83;11.30;;;;;;;6.44;100.00;102494.41;6091367;23;20402;-84
2022/10/03 05:16:41;;;;;;;20.95;12.50;;;;;;;6.46;100.00;102490.84;6090991;23;20058;-84
2022/10/03 05:19:40;;;;;;;25.63;13.27;;;;;;;6.51;100.00;102498.75;6090682;23;20030;-84
2022/10/03 05:22:45;;;;;;;17.77;11.18;;;;;;;6.54;100.00;102496.09;6065876;23;20006;-84
2022/10/03 05:25:37;;;;;;;24.63;13.82;;;;;;;6.63;100.00;102496.00;6091145;23;20010;-84
2022/10/03 05:28:14;;;;;;;24.10;12.10;;;;;;;6.69;100.00;102506.56;6090897;23;20094;-84
2022/10/03 05:31:00;;;;;;;26.30;12.20;;;;;;;6.66;100.00;102506.56;6091376;23;20026;-84
2022/10/03 05:33:51;;;;;;;23.15;12.25;;;;;;;6.65;100.00;102510.13;6091080;23;20488;-83
2022/10/03 05:36:29;;;;;;;21.40;12.48;;;;;;;6.66;100.00;102511.00;6091717;23;20081;-83
2022/10/03 05:39:33;;;;;;;21.83;12.35;;;;;;;6.76;100.00;102519.72;6090074;23;20033;-83
2022/10/03 05:42:06;;;;;;;20.10;12.17;;;;;;;6.81;100.00;102516.13;6092123;23;20045;-84
2022/10/03 05:44:41;;;;;;;21.05;12.40;;;;;;;6.84;100.00;102516.13;6090938;23;20561;-84
2022/10/03 05:47:43;;;;;;;21.38;12.00;;;;;;;6.84;100.00;102521.41;6090550;23;20006;-83
2022/10/03 05:50:31;;;;;;;21.50;12.13;;;;;;;6.84;100.00;102524.06;6091049;23;20428;-84
2022/10/03 05:53:11;;;;;;;21.02;11.60;;;;;;;6.96;100.00;102526.59;6090452;23;20345;-82
2022/10/03 05:56:01;;;;;;;23.35;13.07;;;;;;;7.05;100.00;102522.13;6091171;23;20010;-83
2022/10/03 05:58:50;;;;;;;23.67;12.75;;;;;;;7.11;100.00;102525.59;6089461;23;20013;-83
2022/10/03 06:01:27;;;;;;;20.40;12.13;;;;;;;7.15;100.00;102529.09;6090494;23;20010;-83
2022/10/03 06:04:01;;;;;;;20.98;13.40;;;;;;;7.18;100.00;102529.03;6090492;23;20015;-83
2022/10/03 06:06:46;;;;;;;27.95;14.13;;;;;;;7.16;100.00;102526.41;6090133;23;20041;-83
2022/10/03 06:09:25;;;;;;;21.67;12.45;;;;;;;7.22;100.00;102539.59;6090166;23;20018;-83
2022/10/03 06:12:06;;;;;;;25.45;13.60;;;;;;;7.19;100.00;102541.38;6090292;23;20141;-83
2022/10/03 06:15:22;;;;;;;26.00;13.50;;;;;;;7.10;100.00;102522.94;6089936;23;20006;-83
2022/10/03 06:17:58;;;;;;;24.42;13.38;;;;;;;7.17;100.00;102540.53;6087948;23;20050;-83
2022/10/03 06:20:54;;;;;;;23.80;13.77;;;;;;;7.24;100.00;102542.25;6090638;23;20491;-83
2022/10/03 06:23:57;;;;;;;21.95;13.73;;;;;;;7.31;100.00;102543.03;6089744;23;20006;-83
2022/10/03 06:26:44;;;;;;;24.88;15.02;;;;;;;7.37;100.00;102535.03;6090552;23;20006;-83
2022/10/03 06:29:48;;;;;;;24.23;14.23;;;;;;;7.42;100.00;102542.03;6088269;23;20037;-83
2022/10/03 06:33:00;;;;;;;21.98;13.55;;;;;;;7.42;100.00;102531.44;6089652;23;20010;-83
2022/10/03 06:35:53;;;;;;;20.77;13.98;;;;;;;7.56;100.00;102548.97;6089900;23;20082;-83
2022/10/03 06:38:52;;;;;;;22.58;13.95;;;;;;;7.66;100.00;102550.63;6089956;23;20049;-83
2022/10/03 06:41:42;;;;;;;23.13;14.63;;;;;;;7.81;100.00;102550.41;6063588;23;20002;-85
2022/10/03 06:44:39;;;;;;;24.33;15.82;;;;;;;7.89;100.00;102545.03;6088141;23;20013;-82
2022/10/03 06:47:33;;;;;;;26.98;15.23;;;;;;;7.97;100.00;102549.34;6078184;23;20018;-83
2022/10/03 06:50:13;;;;;;;22.88;14.63;;;;;;;7.97;100.00;102536.06;6088127;23;20069;-84
2022/10/03 06:53:08;;;;;;;21.90;13.50;;;;;;;8.09;100.00;102545.66;6093239;23;20011;-83
2022/10/03 06:56:07;;;;;;;23.55;12.82;;;;;;;8.10;100.00;102549.19;6094238;23;20006;-81
2022/10/03 06:58:46;;;;;;;22.98;13.52;;;;;;;8.03;100.00;102550.19;6090245;23;20010;-81
2022/10/03 07:01:11;;;;;;;24.75;13.70;;;;;;;7.97;100.00;102551.13;6094066;23;20012;-81
2022/10/03 07:03:58;;;;;;;22.83;13.82;;;;;;;7.91;100.00;102562.69;6097561;23;20030;-82
2022/10/03 07:06:42;;;;;;;20.33;13.50;;;;;;;7.86;100.00;102564.53;6092905;23;20496;-83
2022/10/03 07:09:52;;;;;;;21.85;13.90;;;;;;;7.84;100.00;102566.31;6092294;23;20103;-81
2022/10/03 07:12:42;;;;;;;25.33;14.27;;;;;;;7.83;100.00;102568.97;6065688;23;20010;-81
2022/10/03 07:15:21;;;;;;;25.92;15.10;;;;;;;7.83;100.00;102568.97;6092345;23;20441;-82
2022/10/03 07:18:10;;;;;;;31.35;15.65;;;;;;;7.87;100.00;102568.91;6094969;23;20065;-82
2022/10/03 07:20:57;;;;;;;28.42;16.33;;;;;;;7.89;100.00;102563.59;6113426;23;20033;-82
2022/10/03 07:24:02;;;;;;;26.58;15.90;;;;;;;7.93;100.00;102570.59;6067691;23;20042;-81
2022/10/03 07:26:55;;;;;;;24.13;16.25;;;;;;;7.97;100.00;102572.31;6092859;23;20010;-83
2022/10/03 07:30:03;;;;;;;25.58;16.95;;;;;;;8.02;100.00;102575.78;6092589;23;20053;-83
2022/10/03 07:32:50;;;;;;;26.77;16.38;;;;;;;8.12;100.00;102579.22;6048627;23;20069;-83
2022/10/03 07:38:57;;;;;;;33.33;17.92;;;;;;;8.28;100.00;102571.91;6094855;23;20085;-82
2022/10/03 07:41:42;;;;;;;26.08;17.50;;;;;;;8.40;100.00;102582.41;6063568;23;20021;-83
2022/10/03 07:44:39;;;;;;;24.67;17.95;;;;;;;8.48;100.00;102580.50;6062804;23;20435;-82
2022/10/03 07:47:22;;;;;;;24.95;16.95;;;;;;;8.59;100.00;102580.38;6087330;23;20042;-82
2022/10/03 07:50:06;;;;;;;25.73;16.73;;;;;;;8.69;100.00;102584.63;6090223;23;20010;-82
2022/10/03 07:52:53;;;;;;;31.08;17.27;;;;;;;8.82;100.00;102588.88;6088385;23;20298;-82
2022/10/03 07:55:54;;;;;;;28.25;17.77;;;;;;;8.97;100.00;102593.91;6087480;23;20081;-82
2022/10/03 07:58:38;;;;;;;29.15;16.60;;;;;;;9.11;100.00;102600.78;6089555;23;20057;-82
2022/10/03 08:01:09;;;;;;;24.45;16.27;;;;;;;9.32;100.00;102602.19;6089757;23;20013;-82
2022/10/03 08:03:59;;;;;;;25.00;16.45;;;;;;;9.61;100.00;102593.69;6089927;23;20819;-82
2022/10/03 08:06:37;;;;;;;23.67;16.35;;;;;;;10.18;100.00;102593.44;6087794;23;20010;-83
2022/10/03 08:09:14;;;;;;;27.52;15.82;;;;;;;11.06;100.00;102600.31;6087882;23;20011;-82
2022/10/03 08:12:15;;;;;;;16.48;13.38;;;;;;;11.79;100.00;102586.81;6089621;23;20093;-82
2022/10/03 08:14:56;;;;;;;20.48;11.80;;;;;;;12.76;97.68;102590.16;6089403;23;20019;-82
2022/10/03 08:17:56;;;;;;;16.10;11.10;;;;;;;13.47;93.82;102602.06;6060756;23;20010;-83
2022/10/03 08:20:59;;;;;;;13.27;9.27;;;;;;;14.14;90.29;102594.25;6088191;23;20333;-83
2022/10/03 08:24:02;;;;;;;14.52;8.65;;;;;;;15.15;88.21;102595.59;5947676;24;20103;-83
2022/10/03 08:26:49;;;;;;;14.80;8.45;;;;;;;16.06;78.55;102597.88;5971674;24;20064;-83
2022/10/03 08:29:48;;;;;;;14.02;8.43;;;;;;;16.87;80.00;102586.81;5972417;24;20326;-83
2022/10/03 08:32:35;;;;;;;11.60;7.38;;;;;;;17.69;74.68;102602.38;5971362;24;20313;-83
2022/10/03 08:35:43;;;;;;;14.30;7.13;;;;;;;18.86;74.76;102584.22;5970857;24;20588;-83
2022/10/03 08:38:31;;;;;;;13.65;6.72;;;;;;;19.83;63.07;102589.22;5970097;24;20080;-83
2022/10/03 08:41:36;;;;;;;14.07;7.05;;;;;;;20.65;70.16;102599.31;5948199;24;20015;-83
2022/10/03 08:44:35;;;;;;;10.50;6.20;;;;;;;21.28;65.79;102601.38;5973781;24;20015;-83
2022/10/03 08:47:21;;;;;;;13.93;6.40;;;;;;;21.69;56.52;102604.91;5971452;24;20068;-83
2022/10/03 08:50:05;;;;;;;11.15;5.95;;;;;;;22.53;60.78;102597.06;5974850;24;20038;-84
2022/10/03 08:52:51;;;;;;;10.70;5.63;;;;;;;22.84;59.82;102598.34;5973749;24;20012;-84
2022/10/03 08:55:44;;;;;;;10.20;5.57;;;;;;;23.15;57.90;102604.19;6080828;23;20010;-82
2022/10/03 08:58:41;;;;;;;10.90;5.72;;;;;;;23.61;53.96;102596.03;6089259;23;20011;-82
2022/10/03 09:01:26;;;;;;;10.05;5.60;;;;;;;23.90;53.59;102605.63;6090309;23;20017;-83
2022/10/03 09:04:10;;;;;;;11.43;5.18;;;;;;;24.47;53.58;102612.84;6089831;23;20006;-83
2022/10/03 09:06:56;;;;;;;10.00;5.70;;;;;;;24.99;52.48;102605.75;6063528;23;20441;-83
2022/10/03 09:09:59;;;;;;;16.75;9.80;;;;;;;24.41;51.49;102610.59;6091222;23;20042;-83
2022/10/03 09:12:46;;;;;;;13.68;7.57;;;;;;;24.00;46.96;102609.38;6090261;23;20010;-83
2022/10/03 09:15:48;;;;;;;8.90;4.60;;;;;;;24.17;51.28;102614.31;6090670;23;20014;-82
2022/10/03 09:18:40;;;;;;;7.03;4.05;;;;;;;24.49;48.25;102616.28;6064224;23;20061;-83
2022/10/03 09:21:34;;;;;;;9.15;4.10;;;;;;;25.34;46.44;102616.44;6089668;23;20062;-84
2022/10/03 09:24:33;;;;;;;9.30;3.80;;;;;;;25.50;45.91;102618.66;6091157;23;20003;-83
2022/10/03 09:27:07;;;;;;;9.82;4.00;;;;;;;25.65;44.24;102617.34;6089894;23;20013;-83
2022/10/03 09:29:51;;;;;;;8.50;3.30;;;;;;;25.58;40.96;102616.16;6090413;23;20014;-83
2022/10/03 09:32:33;;;;;;;8.40;3.25;;;;;;;25.97;44.01;102613.69;6090577;23;20093;-83
2022/10/03 09:35:22;;;;;;;7.10;3.30;;;;;;;26.51;42.96;102604.31;6064326;23;20006;-83
2022/10/03 09:38:18;;;;;;;5.13;1.98;;;;;;;27.25;40.10;102599.22;6091208;23;20011;-83
2022/10/03 09:41:11;;;;;;;7.28;2.55;;;;;;;27.78;38.44;102600.59;6092594;23;20002;-83
2022/10/03 09:44:11;;;;;;;8.00;2.90;;;;;;;26.59;41.79;102590.81;6094373;23;20441;-82
2022/10/03 09:47:37;;;;;;;7.15;2.50;;;;;;;24.60;41.47;102589.03;6092040;23;20006;-82
2022/10/03 09:50:09;;;;;;;6.68;2.72;;;;;;;23.49;44.60;102590.69;6079705;23;20014;-82
2022/10/03 09:53:12;;;;;;;10.15;3.25;;;;;;;22.60;49.06;102584.75;5988045;24;20091;-82
2022/10/03 09:56:25;;;;;;;9.98;3.17;;;;;;;21.78;49.78;102597.03;5988389;24;20016;-82
2022/10/03 09:59:06;;;;;;;8.48;3.13;;;;;;;20.98;49.86;102579.94;5884255;24;20006;-82
2022/10/03 10:01:52;;;;;;;8.20;2.80;;;;;;;21.13;52.32;102584.31;5977421;24;20035;-82
2022/10/03 10:04:38;;;;;;;7.82;2.33;;;;;;;21.44;51.03;102584.09;5977427;24;20043;-82
2022/10/03 10:07:35;;;;;;;9.23;2.38;;;;;;;21.93;49.77;102578.78;5976925;24;20035;-82
2022/10/03 10:10:20;;;;;;;7.72;2.13;;;;;;;23.61;46.30;102571.56;5977768;24;20057;-82
2022/10/03 10:13:07;;;;;;;7.50;2.33;;;;;;;23.90;42.38;102575.72;5978481;24;20020;-82
2022/10/03 10:15:47;;;;;;;5.45;1.95;;;;;;;23.26;45.48;102574.34;5975165;24;20133;-82
2022/10/03 10:18:46;;;;;;;10.07;2.08;;;;;;;22.98;47.00;102572.88;5973179;24;20008;-82
2022/10/03 10:21:39;;;;;;;6.20;2.35;;;;;;;23.13;47.67;102576.28;5973415;24;20071;-82
2022/10/03 10:24:29;;;;;;;8.17;2.20;;;;;;;22.63;47.63;102575.50;5974550;24;20451;-82
2022/10/03 10:27:24;;;;;;;7.72;2.28;;;;;;;22.57;48.85;102574.13;5972758;24;20098;-82
2022/10/03 10:30:10;;;;;;;4.47;1.92;;;;;;;23.20;46.79;102577.56;6070138;23;20016;-82
2022/10/03 10:33:08;;;;;;;5.57;2.30;;;;;;;23.18;47.51;102574.06;6091280;23;20014;-82
2022/10/03 10:35:45;;;;;;;6.43;2.05;;;;;;;25.37;43.23;102575.25;6088953;23;20006;-82
2022/10/03 10:38:24;;;;;;;6.95;2.20;;;;;;;27.33;36.81;102571.16;6065018;23;20389;-83
2022/10/03 10:41:14;;;;;;;3.80;1.63;;;;;;;29.09;37.19;102563.84;6090268;23;20425;-83
2022/10/03 10:44:03;;;;;;;6.78;2.75;;;;;;;29.86;35.57;102567.69;6090141;23;20017;-83
2022/10/03 10:46:57;;;;;;;4.88;2.00;;;;;;;30.35;34.07;102565.16;6089134;23;20065;-83
2022/10/03 10:49:56;;;;;;;5.10;1.90;;;;;;;31.54;33.04;102562.91;6089583;23;20007;-83
2022/10/03 10:52:42;;;;;;;5.45;2.33;;;;;;;32.62;31.91;102559.56;6090064;23;20344;-83
2022/10/03 10:55:42;;;;;;;8.25;2.90;;;;;;;33.10;30.58;102558.34;6089065;23;20638;-83
2022/10/03 10:58:58;;;;;;;3.92;1.77;;;;;;;33.21;30.60;102574.47;6090281;23;20045;-83
2022/10/03 11:01:45;;;;;;;5.30;1.90;;;;;;;32.92;30.54;102577.13;6088990;23;20029;-83
2022/10/03 11:04:48;;;;;;;7.15;2.05;;;;;;;30.95;31.96;102575.97;6088108;23;20002;-83
2022/10/03 11:07:38;;;;;;;4.43;1.70;;;;;;;28.19;35.03;102580.13;6063487;23;20054;-83
2022/10/03 11:10:18;;;;;;;4.03;1.60;;;;;;;26.03;37.88;102583.97;6088251;23;19998;-82
2022/10/03 11:12:46;;;;;;;4.57;1.80;;;;;;;24.63;38.22;102580.63;6088796;23;20018;-83
2022/10/03 11:15:52;;;;;;;4.78;1.85;;;;;;;23.78;42.05;102577.56;6087854;23;20013;-83
2022/10/03 11:19:13;;;;;;;6.63;2.00;;;;;;;23.38;42.76;102574.38;6089710;23;20045;-83
2022/10/03 11:21:47;;;;;;;5.90;1.92;;;;;;;22.50;43.19;102563.84;5945042;24;20009;-83
2022/10/03 11:24:36;;;;;;;6.55;1.98;;;;;;;23.28;42.94;102556.09;5944731;24;20051;-83
2022/10/03 11:27:37;;;;;;;7.72;2.15;;;;;;;24.34;41.38;102550.34;5945121;24;20012;-83
2022/10/03 11:30:17;;;;;;;5.07;2.55;;;;;;;26.60;36.49;102554.31;5944925;24;20095;-83
2022/10/03 11:33:06;;;;;;;7.72;2.40;;;;;;;28.29;35.83;102559.03;5945728;24;20554;-83
2022/10/03 11:36:03;;;;;;;6.88;2.33;;;;;;;29.49;33.24;102555.94;5944033;24;20013;-83
2022/10/03 11:38:33;;;;;;;4.57;1.83;;;;;;;30.41;28.53;102554.38;5943123;24;20083;-83
2022/10/03 11:41:07;;;;;;;6.22;1.90;;;;;;;31.32;29.20;102549.88;5946702;24;20509;-83
2022/10/03 11:43:51;;;;;;;5.07;1.80;;;;;;;32.07;30.24;102555.03;5944784;24;20015;-83
2022/10/03 11:46:53;;;;;;;8.93;2.25;;;;;;;32.52;27.82;102557.03;5944535;24;20083;-84
2022/10/03 11:49:38;;;;;;;3.10;1.73;;;;;;;32.97;28.18;102556.22;5946996;24;20013;-83
2022/10/03 11:52:18;;;;;;;6.65;1.92;;;;;;;33.53;26.51;102564.22;5947110;24;20153;-84
2022/10/03 11:54:47;;;;;;;4.68;1.80;;;;;;;33.92;24.59;102558.41;5945072;24;20019;-83
2022/10/03 11:57:27;;;;;;;4.55;1.77;;;;;;;34.45;25.37;102558.25;5965789;23;20437;-84
2022/10/03 12:00:02;;;;;;;3.97;1.40;;;;;;;34.68;24.53;102556.19;6088632;23;20010;-84
2022/10/03 12:03:00;;;;;;;4.78;1.90;;;;;;;34.91;25.07;102560.69;6088349;23;20059;-83
2022/10/03 12:05:41;;;;;;;7.40;2.28;;;;;;;35.15;25.64;102551.97;6089617;23;20013;-84
2022/10/03 12:11:23;;;;;;;7.70;1.70;;;;;;;35.06;22.01;102544.88;6090886;23;20464;-85
2022/10/03 12:14:07;;;;;;;3.63;1.52;;;;;;;35.39;19.84;102550.66;6089913;23;20006;-84
2022/10/03 12:16:56;;;;;;;8.85;1.85;;;;;;;34.92;23.93;102545.78;6088910;23;20024;-84
2022/10/03 12:19:35;;;;;;;4.45;1.70;;;;;;;33.32;25.04;102544.69;6092293;23;20010;-85
2022/10/03 12:22:39;;;;;;;8.40;4.10;;;;;;;31.51;27.96;102543.97;6098082;23;20037;-84
2022/10/03 12:25:20;;;;;;;10.07;3.40;;;;;;;29.23;29.89;102539.47;6095975;23;20085;-83
2022/10/03 12:27:57;;;;;;;6.68;2.00;;;;;;;29.45;30.58;102543.56;6095286;23;20010;-84
2022/10/03 12:30:26;;;;;;;5.82;1.73;;;;;;;30.03;28.17;102542.88;6113041;23;20018;-84
2022/10/03 12:33:27;;;;;;;5.45;1.48;;;;;;;29.63;29.97;102543.50;6117550;23;20010;-84
2022/10/03 12:36:02;;;;;;;4.85;1.52;;;;;;;27.39;30.57;102547.84;5972564;24;20007;-84
2022/10/03 12:39:00;;;;;;;5.70;1.50;;;;;;;26.40;33.66;102538.84;5959033;24;20076;-83
2022/10/03 12:41:44;;;;;;;5.03;1.40;;;;;;;25.02;33.38;102540.97;5951776;24;20073;-83
2022/10/03 12:44:39;;;;;;;5.60;1.70;;;;;;;24.03;36.56;102535.66;5950182;24;20036;-83
2022/10/03 12:47:30;;;;;;;7.45;1.75;;;;;;;23.05;37.53;102532.53;5950899;24;20036;-83
2022/10/03 12:50:33;;;;;;;4.25;1.38;;;;;;;22.62;40.53;102533.09;5951663;24;20009;-83
2022/10/03 12:53:16;;;;;;;7.00;1.60;;;;;;;21.98;40.80;102525.09;5951847;24;20443;-83
2022/10/03 12:56:03;;;;;;;4.85;1.40;;;;;;;21.59;43.17;102531.53;5949157;24;20118;-83
2022/10/03 12:58:52;;;;;;;6.65;1.65;;;;;;;21.52;42.04;102531.09;5948634;24;20496;-83
2022/10/03 13:01:42;;;;;;;4.53;1.60;;;;;;;21.51;43.52;102528.50;5925031;24;20012;-83